createdAt,value
2019-02-19T00:01:52.731Z,78.06
2019-02-19T00:04:22.993Z,78.53
2019-02-19T00:06:53.272Z,78.57
2019-02-19T00:09:23.530Z,78.29
2019-02-19T00:11:53.814Z,77.85
2019-02-19T00:14:24.075Z,77.44
2019-02-19T00:16:54.354Z,77.90
2019-02-19T00:19:24.688Z,77.44
2019-02-19T00:21:55.854Z,78.48
2019-02-19T00:24:26.117Z,78.03
2019-02-19T00:26:56.448Z,79.12
2019-02-19T00:29:26.710Z,78.52
2019-02-19T00:31:57.035Z,78.99
2019-02-19T00:34:27.372Z,78.93
2019-02-19T00:36:57.636Z,79.29
2019-02-19T00:39:27.894Z,79.04
2019-02-19T00:41:58.156Z,79.38
2019-02-19T00:44:28.418Z,79.03
2019-02-19T00:46:58.678Z,79.13
2019-02-19T00:49:28.942Z,79.13
2019-02-19T00:52:00.409Z,79.67
2019-02-19T00:54:30.635Z,80.23
2019-02-19T00:57:00.895Z,80.11
2019-02-19T00:59:31.150Z,79.44
2019-02-19T01:02:01.415Z,78.89
2019-02-19T01:04:31.681Z,79.02
2019-02-19T01:07:01.949Z,79.10
2019-02-19T01:09:32.244Z,79.15
2019-02-19T01:12:02.500Z,78.82
2019-02-19T01:14:32.763Z,78.84
2019-02-19T01:17:03.041Z,78.50
2019-02-19T01:19:34.354Z,77.87
2019-02-19T01:22:05.470Z,78.24
2019-02-19T01:24:37.012Z,78.25
2019-02-19T01:27:07.268Z,78.71
2019-02-19T01:29:37.532Z,78.99
2019-02-19T01:32:07.792Z,78.93
2019-02-19T01:34:38.051Z,79.21
2019-02-19T01:37:08.307Z,79.24
2019-02-19T01:39:38.571Z,78.90
2019-02-19T01:42:09.747Z,79.00
2019-02-19T01:44:40.013Z,79.27
2019-02-19T01:47:10.275Z,79.06
2019-02-19T01:49:40.539Z,79.12
2019-02-19T01:52:10.799Z,78.99
2019-02-19T01:54:41.064Z,78.79
2019-02-19T01:57:11.329Z,78.85
2019-02-19T01:59:41.591Z,78.66
2019-02-19T02:02:11.846Z,78.45
2019-02-19T02:04:42.114Z,78.63
2019-02-19T02:07:12.378Z,78.60
2019-02-19T02:09:42.640Z,78.67
2019-02-19T02:12:12.887Z,78.96
2019-02-19T02:14:43.141Z,79.20
2019-02-19T02:17:13.394Z,79.33
2019-02-19T02:19:43.651Z,79.42
2019-02-19T02:22:14.808Z,79.66
2019-02-19T02:24:45.063Z,79.86
2019-02-19T02:27:15.317Z,79.56
2019-02-19T02:29:45.571Z,79.49
2019-02-19T02:32:15.831Z,79.59
2019-02-19T02:34:46.092Z,79.31
2019-02-19T02:37:16.342Z,79.58
2019-02-19T02:39:46.604Z,78.85
2019-02-19T02:42:16.862Z,78.29
2019-02-19T02:44:47.125Z,78.44
2019-02-19T02:47:17.383Z,78.67
2019-02-19T02:49:47.648Z,79.16
2019-02-19T02:52:18.074Z,79.58
2019-02-19T02:54:49.002Z,79.93
2019-02-19T02:57:19.264Z,79.78
2019-02-19T02:59:49.527Z,79.92
2019-02-19T03:02:19.789Z,79.68
2019-02-19T03:04:50.080Z,80.05
2019-02-19T03:07:21.976Z,80.05
2019-02-19T03:09:52.250Z,79.98
2019-02-19T03:12:22.502Z,79.61
2019-02-19T03:14:52.784Z,79.45
2019-02-19T03:17:23.045Z,79.58
2019-02-19T03:19:53.321Z,79.24
2019-02-19T03:22:24.756Z,79.57
2019-02-19T03:24:55.040Z,79.95
2019-02-19T03:27:25.299Z,80.11
2019-02-19T03:29:55.570Z,80.41
2019-02-19T03:32:25.847Z,80.65
2019-02-19T03:34:56.113Z,79.93
2019-02-19T03:37:26.364Z,79.82
2019-02-19T03:39:56.641Z,79.90
2019-02-19T03:42:26.899Z,79.95
2019-02-19T03:44:57.180Z,79.88
2019-02-19T03:47:27.442Z,79.24
2019-02-19T03:49:57.711Z,78.95
2019-02-19T03:52:27.965Z,78.97
2019-02-19T03:54:58.242Z,79.54
2019-02-19T03:57:28.498Z,79.54
2019-02-19T03:59:58.776Z,79.72
2019-02-19T04:02:29.035Z,79.63
2019-02-19T04:04:59.304Z,79.92
2019-02-19T04:07:29.561Z,79.21
2019-02-19T04:09:59.841Z,78.72
2019-02-19T04:12:30.105Z,78.35
2019-02-19T04:15:00.394Z,78.16
2019-02-19T04:17:30.646Z,78.09
2019-02-19T04:20:00.923Z,77.97
2019-02-19T04:22:32.247Z,77.99
2019-02-19T04:25:02.516Z,78.64
2019-02-19T04:27:32.775Z,78.36
2019-02-19T04:30:03.993Z,78.36
2019-02-19T04:32:34.316Z,77.89
2019-02-19T04:35:05.628Z,78.00
2019-02-19T04:37:35.897Z,77.42
2019-02-19T04:40:07.911Z,77.94
2019-02-19T04:42:38.170Z,78.81
2019-02-19T04:45:08.444Z,77.83
2019-02-19T04:47:38.703Z,78.35
2019-02-19T04:50:09.461Z,78.21
2019-02-19T04:52:39.721Z,77.89
2019-02-19T04:55:09.998Z,77.53
2019-02-19T04:57:40.251Z,77.75
2019-02-19T05:00:13.070Z,78.08
2019-02-19T05:02:43.332Z,77.60
2019-02-19T05:05:13.616Z,77.25
2019-02-19T05:07:43.870Z,77.66
2019-02-19T05:10:14.149Z,77.74
2019-02-19T05:12:44.418Z,77.51
2019-02-19T05:15:14.690Z,77.68
2019-02-19T05:17:44.945Z,77.26
2019-02-19T05:20:15.236Z,77.59
2019-02-19T05:22:45.492Z,77.30
2019-02-19T05:25:15.789Z,76.72
2019-02-19T05:27:46.042Z,76.64
2019-02-19T05:30:18.286Z,76.32
2019-02-19T05:32:48.928Z,76.04
2019-02-19T05:35:20.383Z,76.18
2019-02-19T05:37:50.649Z,76.45
2019-02-19T05:40:20.916Z,76.17
2019-02-19T05:42:51.171Z,76.13
2019-02-19T05:45:21.433Z,76.37
2019-02-19T05:47:51.697Z,76.47
2019-02-19T05:50:21.964Z,75.98
2019-02-19T05:52:52.222Z,75.78
2019-02-19T05:55:22.490Z,76.35
2019-02-19T05:57:52.756Z,76.42
2019-02-19T06:00:23.027Z,76.42
2019-02-19T06:02:53.280Z,76.14
2019-02-19T06:05:23.593Z,75.56
2019-02-19T06:07:54.953Z,75.64
2019-02-19T06:10:25.477Z,75.62
2019-02-19T06:12:55.744Z,75.50
2019-02-19T06:15:28.376Z,75.31
2019-02-19T06:17:58.768Z,75.00
2019-02-19T06:20:30.215Z,73.97
2019-02-19T06:23:01.366Z,72.92
2019-02-19T06:25:32.815Z,70.30
2019-02-19T06:28:04.283Z,70.99
2019-02-19T06:30:35.814Z,68.01
2019-02-19T06:33:06.085Z,63.00
2019-02-19T06:35:36.384Z,63.00
2019-02-19T06:38:06.645Z,64.36
2019-02-19T06:40:36.894Z,63.12
2019-02-19T06:43:07.418Z,62.25
2019-02-19T06:45:37.681Z,62.30
2019-02-19T06:48:07.948Z,62.09
2019-02-19T06:50:38.205Z,60.39
2019-02-19T06:53:08.464Z,56.48
2019-02-19T06:55:38.718Z,57.98
2019-02-19T06:58:08.980Z,59.71
2019-02-19T07:00:39.244Z,57.32
2019-02-19T07:03:13.841Z,55.87
2019-02-19T07:05:44.507Z,51.29
2019-02-19T07:08:14.772Z,53.86
2019-02-19T07:10:45.129Z,51.24
2019-02-19T07:13:15.445Z,50.06
2019-02-19T07:15:47.315Z,51.65
2019-02-19T07:18:17.583Z,49.42
2019-02-19T07:20:47.863Z,47.92
2019-02-19T07:23:19.915Z,47.98
2019-02-19T07:25:50.193Z,43.27
2019-02-19T07:28:20.458Z,43.77
2019-02-19T07:30:50.719Z,42.00
2019-02-19T07:33:21.163Z,39.91
2019-02-19T07:35:51.488Z,40.98
2019-02-19T07:38:21.856Z,37.77
2019-02-19T07:40:52.121Z,36.38
2019-02-19T07:43:22.380Z,35.92
2019-02-19T07:45:54.119Z,34.96
2019-02-19T07:48:30.410Z,34.15
2019-02-19T07:51:05.489Z,34.33
2019-02-19T07:53:37.413Z,33.25
2019-02-19T07:56:09.087Z,32.61
2019-02-19T07:58:40.301Z,31.19
2019-02-19T08:01:10.575Z,31.06
2019-02-19T08:03:40.838Z,30.67
2019-02-19T08:06:11.124Z,30.84
2019-02-19T08:08:43.088Z,30.95
2019-02-19T08:11:13.764Z,30.21
2019-02-19T08:13:44.050Z,30.76
2019-02-19T08:16:14.329Z,29.83
2019-02-19T08:18:44.624Z,29.53
2019-02-19T08:21:14.902Z,30.55
2019-02-19T08:23:45.177Z,30.87
2019-02-19T08:26:15.970Z,30.65
2019-02-19T08:28:52.580Z,30.40
2019-02-19T08:31:28.838Z,30.56
2019-02-19T08:34:05.773Z,30.51
2019-02-19T08:36:37.070Z,31.03
2019-02-19T08:39:10.868Z,31.40
2019-02-19T08:41:41.102Z,31.14
2019-02-19T08:44:11.376Z,31.98
2019-02-19T08:46:41.633Z,32.85
2019-02-19T08:49:11.940Z,33.34
2019-02-19T08:51:42.219Z,34.02
2019-02-19T08:54:12.510Z,33.22
2019-02-19T08:56:44.407Z,33.27
2019-02-19T08:59:14.775Z,36.05
2019-02-19T09:01:45.038Z,39.46
2019-02-19T09:04:15.533Z,42.02
2019-02-19T09:06:46.962Z,43.02
2019-02-19T09:09:18.451Z,44.98
2019-02-19T09:11:48.815Z,45.11
2019-02-19T09:14:22.366Z,45.94
2019-02-19T09:16:56.604Z,45.88
2019-02-19T09:19:28.844Z,45.71
2019-02-19T09:22:00.289Z,45.83
2019-02-19T09:24:31.848Z,45.97
2019-02-19T09:27:05.938Z,46.10
2019-02-19T09:29:39.411Z,46.05
2019-02-19T09:32:15.357Z,46.23
2019-02-19T09:34:45.640Z,46.20
2019-02-19T09:37:17.297Z,45.52
2019-02-19T09:39:49.285Z,45.90
2019-02-19T09:42:19.591Z,45.57
2019-02-19T09:44:50.148Z,45.87
2019-02-19T09:47:21.078Z,45.22
2019-02-19T09:49:51.508Z,45.28
2019-02-19T09:52:21.785Z,45.79
2019-02-19T09:54:53.530Z,45.80
2019-02-19T09:57:23.839Z,45.57
2019-02-19T09:59:54.696Z,46.15
2019-02-19T10:02:25.088Z,45.99
2019-02-19T10:04:55.366Z,46.01
2019-02-19T10:07:29.011Z,46.01
2019-02-19T10:09:59.452Z,46.37
2019-02-19T10:12:29.756Z,46.45
2019-02-19T10:15:00.378Z,45.92
2019-02-19T10:17:30.859Z,45.73
2019-02-19T10:20:01.169Z,45.83
2019-02-19T10:22:32.789Z,45.72
2019-02-19T10:25:03.705Z,45.83
2019-02-19T10:27:37.340Z,46.12
2019-02-19T10:30:10.862Z,45.92
2019-02-19T10:32:41.301Z,45.98
2019-02-19T10:35:12.239Z,45.31
2019-02-19T10:37:42.774Z,45.17
2019-02-19T10:40:20.872Z,45.34
2019-02-19T10:42:51.349Z,45.46
2019-02-19T10:45:24.159Z,45.36
2019-02-19T10:47:54.438Z,45.40
2019-02-19T10:50:24.721Z,44.83
2019-02-19T10:52:54.990Z,45.52
2019-02-19T10:55:25.245Z,45.49
2019-02-19T10:57:55.771Z,45.15
2019-02-19T11:00:26.566Z,45.49
2019-02-19T11:02:58.949Z,45.37
2019-02-19T11:05:29.208Z,45.44
2019-02-19T11:07:59.462Z,45.03
2019-02-19T11:10:29.885Z,44.51
2019-02-19T11:13:01.993Z,44.56
2019-02-19T11:15:32.221Z,44.58
2019-02-19T11:18:06.190Z,44.45
2019-02-19T11:20:57.071Z,45.22
2019-02-19T11:24:19.818Z,45.48
2019-02-19T11:27:11.743Z,43.40
2019-02-19T11:29:46.566Z,43.01
2019-02-19T11:32:22.971Z,43.89
2019-02-19T11:34:53.337Z,43.87
2019-02-19T11:37:28.962Z,43.51
2019-02-19T11:40:02.250Z,43.77
2019-02-19T11:42:41.314Z,43.84
2019-02-19T11:45:20.781Z,44.05
2019-02-19T11:48:02.943Z,44.68
2019-02-19T11:50:39.312Z,44.63
2019-02-19T11:53:10.812Z,44.92
2019-02-19T11:55:41.071Z,45.17
2019-02-19T11:58:15.261Z,45.47
2019-02-19T12:00:50.260Z,45.92
2019-02-19T12:03:22.198Z,45.90
2019-02-19T12:05:54.173Z,45.95
2019-02-19T12:08:25.544Z,46.29
2019-02-19T12:10:55.993Z,46.24
2019-02-19T12:13:26.224Z,45.95
2019-02-19T12:15:56.483Z,46.87
2019-02-19T12:18:26.751Z,47.08
2019-02-19T12:20:57.019Z,47.62
2019-02-19T12:23:27.276Z,47.22
2019-02-19T12:25:57.795Z,47.65
2019-02-19T12:28:28.059Z,47.89
2019-02-19T12:30:58.331Z,48.33
2019-02-19T12:33:28.588Z,47.82
2019-02-19T12:35:58.854Z,47.89
2019-02-19T12:38:29.212Z,48.07
2019-02-19T12:41:00.670Z,47.50
2019-02-19T12:43:30.942Z,47.35
2019-02-19T12:46:01.213Z,47.47
2019-02-19T12:48:31.560Z,47.44
2019-02-19T12:51:01.874Z,48.15
2019-02-19T12:53:32.144Z,48.89
2019-02-19T12:56:04.148Z,48.50
2019-02-19T12:58:34.411Z,48.91
2019-02-19T13:01:05.932Z,49.29
2019-02-19T13:03:36.191Z,49.37
2019-02-19T13:06:08.352Z,49.20
2019-02-19T13:08:43.454Z,49.20
2019-02-19T13:11:19.406Z,49.42
2019-02-19T13:13:49.834Z,49.49
2019-02-19T13:16:20.095Z,49.99
2019-02-19T13:18:51.496Z,50.19
2019-02-19T13:21:25.666Z,50.53
2019-02-19T13:23:59.823Z,50.92
2019-02-19T13:26:31.887Z,50.86
2019-02-19T13:29:02.137Z,51.35
2019-02-19T13:31:32.405Z,51.73
2019-02-19T13:34:02.668Z,51.88
2019-02-19T13:36:32.945Z,52.00
2019-02-19T13:39:04.768Z,52.17
2019-02-19T13:41:37.082Z,52.46
2019-02-19T13:44:13.699Z,53.04
2019-02-19T13:46:43.987Z,53.08
2019-02-19T13:49:15.699Z,53.54
2019-02-19T13:51:46.004Z,53.55
2019-02-19T13:54:18.076Z,53.83
2019-02-19T13:56:48.367Z,54.21
2019-02-19T13:59:18.733Z,54.57
2019-02-19T14:01:50.212Z,54.80
2019-02-19T14:04:20.469Z,55.21
2019-02-19T14:06:51.017Z,55.72
2019-02-19T14:09:21.459Z,56.40
2019-02-19T14:11:53.371Z,57.26
2019-02-19T14:14:26.700Z,57.33
2019-02-19T14:17:00.343Z,58.05
2019-02-19T14:19:38.041Z,58.48
2019-02-19T14:22:18.670Z,58.75
2019-02-19T14:24:56.671Z,58.95
2019-02-19T14:27:29.389Z,59.28
2019-02-19T14:30:04.220Z,59.23
2019-02-19T14:32:48.253Z,59.58
2019-02-19T14:35:38.554Z,59.52
2019-02-19T14:38:26.652Z,59.77
2019-02-19T14:41:13.824Z,59.89
2019-02-19T14:43:45.739Z,59.91
2019-02-19T14:46:20.387Z,59.94
2019-02-19T14:49:05.069Z,59.99
2019-02-19T14:51:36.969Z,60.30
2019-02-19T14:54:22.304Z,60.25
2019-02-19T14:56:57.185Z,60.06
2019-02-19T14:59:32.028Z,59.84
2019-02-19T15:02:23.103Z,59.59
2019-02-19T15:05:06.026Z,59.57
2019-02-19T15:07:37.936Z,59.75
2019-02-19T15:10:23.256Z,59.65
2019-02-19T15:13:11.322Z,59.87
2019-02-19T15:15:55.176Z,60.04
2019-02-19T15:18:43.729Z,59.88
2019-02-19T15:21:25.634Z,60.17
2019-02-19T15:24:09.280Z,60.95
2019-02-19T15:26:43.888Z,60.91
2019-02-19T15:29:17.042Z,61.08
2019-02-19T15:32:03.131Z,61.08
2019-02-19T15:34:53.352Z,61.17
2019-02-19T15:37:27.730Z,61.30
2019-02-19T15:40:16.309Z,61.67
2019-02-19T15:43:02.938Z,61.61
2019-02-19T15:45:48.867Z,61.51
2019-02-19T15:48:32.055Z,61.82
2019-02-19T15:51:13.302Z,61.64
2019-02-19T15:53:54.064Z,61.90
2019-02-19T15:56:43.194Z,62.16
2019-02-19T15:59:15.186Z,62.37
2019-02-19T16:02:03.712Z,62.31
2019-02-19T16:04:38.567Z,62.64
2019-02-19T16:07:14.514Z,62.55
2019-02-19T16:09:48.830Z,62.66
2019-02-19T16:12:20.933Z,63.00
2019-02-19T16:15:11.149Z,63.16
2019-02-19T16:17:44.470Z,63.42
2019-02-19T16:20:16.467Z,63.79
2019-02-19T16:22:48.549Z,63.80
2019-02-19T16:25:24.638Z,63.79
2019-02-19T16:28:02.657Z,64.08
2019-02-19T16:30:45.278Z,64.13
2019-02-19T16:33:33.603Z,64.31
2019-02-19T16:36:06.104Z,64.57
2019-02-19T16:38:54.338Z,64.60
2019-02-19T16:41:32.041Z,64.78
2019-02-19T16:44:24.090Z,64.79
2019-02-19T16:47:02.665Z,64.85
2019-02-19T16:49:38.005Z,64.87
2019-02-19T16:52:26.356Z,64.95
2019-02-19T16:54:58.398Z,64.99
2019-02-19T16:57:31.171Z,65.00
2019-02-19T17:00:19.554Z,64.75
2019-02-19T17:02:54.452Z,64.80
2019-02-19T17:05:42.656Z,64.94
2019-02-19T17:08:15.555Z,65.19
2019-02-19T17:10:50.771Z,65.36
2019-02-19T17:13:40.589Z,65.57
2019-02-19T17:16:24.865Z,65.41
2019-02-19T17:18:57.914Z,65.70
2019-02-19T17:21:30.072Z,65.85
2019-02-19T17:24:08.227Z,65.74
2019-02-19T17:26:57.044Z,65.87
2019-02-19T17:29:46.248Z,66.00
2019-02-19T17:32:22.988Z,66.01
2019-02-19T17:34:54.881Z,65.96
2019-02-19T17:37:43.259Z,66.29
2019-02-19T17:40:18.196Z,66.25
2019-02-19T17:42:51.685Z,66.45
2019-02-19T17:45:38.953Z,66.42
2019-02-19T17:48:15.086Z,66.31
2019-02-19T17:50:57.640Z,66.39
2019-02-19T17:53:36.083Z,66.58
2019-02-19T17:56:24.375Z,66.55
2019-02-19T17:59:19.633Z,66.48
2019-02-19T18:01:51.860Z,66.31
2019-02-19T18:04:23.901Z,66.46
2019-02-19T18:07:06.434Z,66.59
2019-02-19T18:09:56.801Z,66.57
2019-02-19T18:12:29.781Z,66.57
2019-02-19T18:15:19.246Z,66.36
2019-02-19T18:18:16.384Z,66.13
2019-02-19T18:20:48.323Z,65.90
2019-02-19T18:23:20.499Z,65.80
2019-02-19T18:25:52.395Z,65.75
2019-02-19T18:28:22.719Z,65.34
2019-02-19T18:30:53.135Z,65.51
2019-02-19T18:33:26.234Z,65.44
2019-02-19T18:35:56.838Z,65.12
2019-02-19T18:38:27.192Z,65.18
2019-02-19T18:40:57.541Z,65.13
2019-02-19T18:43:27.932Z,65.33
2019-02-19T18:45:59.364Z,65.16
2019-02-19T18:48:29.628Z,65.11
2019-02-19T18:50:59.891Z,65.04
2019-02-19T18:53:30.208Z,65.07
2019-02-19T18:56:00.605Z,65.04
2019-02-19T18:58:30.874Z,65.23
2019-02-19T19:01:01.155Z,65.19
2019-02-19T19:03:33.078Z,65.33
2019-02-19T19:06:04.348Z,65.31
2019-02-19T19:08:34.788Z,65.32
2019-02-19T19:11:05.076Z,65.58
2019-02-19T19:13:35.351Z,65.71
2019-02-19T19:16:06.113Z,65.64
2019-02-19T19:18:39.005Z,65.52
2019-02-19T19:21:11.609Z,65.47
2019-02-19T19:24:25.074Z,65.63
2019-02-19T19:27:41.970Z,65.67
2019-02-19T19:30:15.779Z,65.81
2019-02-19T19:32:58.446Z,65.97
2019-02-19T19:35:33.613Z,66.12
2019-02-19T19:38:07.150Z,66.25
2019-02-19T19:40:37.433Z,66.39
2019-02-19T19:43:09.389Z,66.63
2019-02-19T19:45:39.654Z,66.65
2019-02-19T19:48:09.949Z,66.71
2019-02-19T19:50:41.392Z,66.72
2019-02-19T19:53:13.375Z,66.69
2019-02-19T19:55:45.592Z,66.57
2019-02-19T19:58:15.873Z,66.64
2019-02-19T20:00:46.152Z,66.48
2019-02-19T20:03:16.640Z,66.55
2019-02-19T20:05:46.948Z,66.38
2019-02-19T20:08:17.280Z,66.27
2019-02-19T20:10:49.073Z,66.38
2019-02-19T20:13:19.334Z,66.40
2019-02-19T20:15:49.623Z,66.87
2019-02-19T20:18:20.023Z,67.01
2019-02-19T20:20:51.275Z,67.30
2019-02-19T20:23:21.542Z,67.17
2019-02-19T20:25:53.955Z,67.39
2019-02-19T20:28:24.295Z,68.01
2019-02-19T20:30:54.596Z,68.56
2019-02-19T20:33:25.518Z,68.30
2019-02-19T20:35:56.890Z,68.76
2019-02-19T20:38:27.173Z,69.26
2019-02-19T20:40:57.475Z,69.59
2019-02-19T20:43:27.846Z,69.59
2019-02-19T20:46:00.855Z,70.14
2019-02-19T20:48:31.695Z,70.28
2019-02-19T20:51:05.842Z,70.42
2019-02-19T20:53:36.093Z,70.88
2019-02-19T20:56:10.361Z,71.14
2019-02-19T20:58:40.659Z,71.03
2019-02-19T21:01:11.125Z,71.60
2019-02-19T21:03:41.666Z,71.58
2019-02-19T21:06:11.961Z,71.89
2019-02-19T21:08:42.403Z,71.90
2019-02-19T21:11:12.938Z,71.73
2019-02-19T21:13:43.495Z,71.50
2019-02-19T21:16:13.824Z,71.43
2019-02-19T21:18:44.129Z,71.34
2019-02-19T21:21:14.606Z,71.17
2019-02-19T21:23:45.663Z,70.99
2019-02-19T21:26:16.220Z,70.99
2019-02-19T21:28:46.757Z,70.90
2019-02-19T21:31:17.032Z,70.68
2019-02-19T21:33:48.261Z,70.67
2019-02-19T21:36:18.936Z,70.66
2019-02-19T21:38:54.177Z,70.66
2019-02-19T21:41:38.095Z,70.57
2019-02-19T21:44:16.631Z,70.85
2019-02-19T21:46:47.002Z,70.95
2019-02-19T21:49:19.378Z,70.93
2019-02-19T21:51:55.321Z,71.04
2019-02-19T21:54:27.232Z,71.16
2019-02-19T21:56:59.629Z,71.07
2019-02-19T21:59:30.174Z,70.95
2019-02-19T22:02:00.654Z,70.70
2019-02-19T22:04:33.026Z,70.52
2019-02-19T22:07:10.772Z,70.42
2019-02-19T22:09:47.014Z,70.20
2019-02-19T22:12:20.550Z,70.17
2019-02-19T22:14:57.344Z,70.07
2019-02-19T22:17:27.768Z,70.11
2019-02-19T22:20:03.191Z,69.96
2019-02-19T22:22:34.220Z,69.86
2019-02-19T22:25:09.439Z,69.83
2019-02-19T22:27:41.597Z,69.61
2019-02-19T22:30:14.605Z,69.71
2019-02-19T22:32:45.968Z,69.63
2019-02-19T22:35:16.207Z,69.36
2019-02-19T22:37:47.375Z,69.96
2019-02-19T22:40:19.122Z,70.33
2019-02-19T22:42:51.924Z,71.48
2019-02-19T22:45:26.527Z,71.92
2019-02-19T22:48:01.731Z,71.58
2019-02-19T22:50:34.839Z,72.05
2019-02-19T22:53:08.429Z,71.71
2019-02-19T22:55:52.229Z,72.23
2019-02-19T22:58:24.094Z,72.49
2019-02-19T23:00:56.148Z,73.52
2019-02-19T23:03:28.149Z,75.08
2019-02-19T23:05:58.434Z,76.18
2019-02-19T23:08:29.766Z,76.12
2019-02-19T23:11:00.050Z,77.27
2019-02-19T23:13:30.291Z,77.62
2019-02-19T23:16:00.533Z,77.67
2019-02-19T23:18:30.768Z,78.17
2019-02-19T23:21:01.003Z,78.10
2019-02-19T23:23:31.628Z,78.68
2019-02-19T23:26:01.861Z,78.95
2019-02-19T23:28:32.455Z,78.69
2019-02-19T23:31:03.866Z,78.81
2019-02-19T23:33:34.098Z,78.74
2019-02-19T23:36:06.005Z,78.31
2019-02-19T23:38:36.244Z,78.42
2019-02-19T23:41:07.177Z,78.45
2019-02-19T23:43:37.723Z,78.49
2019-02-19T23:46:07.978Z,78.55
2019-02-19T23:48:38.226Z,78.44
2019-02-19T23:51:08.488Z,78.58
2019-02-19T23:53:38.905Z,78.54
2019-02-19T23:56:09.141Z,78.39
2019-02-19T23:58:40.655Z,78.21
